createdAt,value
2019-01-14T00:00:23.691Z,14.90
2019-01-14T00:02:51.381Z,6.50
2019-01-14T00:05:18.891Z,6.43
2019-01-14T00:07:46.571Z,4.07
2019-01-14T00:10:14.065Z,3.23
2019-01-14T00:12:41.542Z,3.93
2019-01-14T00:15:09.601Z,5.40
2019-01-14T00:17:37.512Z,7.43
2019-01-14T00:20:06.427Z,2.93
2019-01-14T00:22:33.792Z,2.30
2019-01-14T00:25:01.692Z,3.37
2019-01-14T00:27:29.411Z,2.77
2019-01-14T00:29:56.956Z,15.00
2019-01-14T00:32:30.691Z,7.73
2019-01-14T00:34:58.087Z,2.93
2019-01-14T00:37:25.640Z,3.17
2019-01-14T00:39:53.861Z,8.73
2019-01-14T00:42:21.314Z,5.90
2019-01-14T00:44:48.692Z,2.77
2019-01-14T00:47:16.245Z,5.60
2019-01-14T00:49:43.753Z,4.27
2019-01-14T00:52:11.299Z,6.77
2019-01-14T00:54:38.729Z,3.23
2019-01-14T00:57:06.425Z,4.57
2019-01-14T00:59:33.937Z,4.33
2019-01-14T01:02:01.436Z,9.40
2019-01-14T01:04:29.186Z,7.83
2019-01-14T01:06:56.633Z,3.73
2019-01-14T01:09:24.108Z,2.03
2019-01-14T01:11:51.821Z,5.03
2019-01-14T01:14:19.424Z,7.83
2019-01-14T01:16:46.884Z,2.27
2019-01-14T01:19:14.419Z,13.10
2019-01-14T01:21:41.903Z,7.03
2019-01-14T01:24:09.373Z,14.20
2019-01-14T01:26:36.801Z,9.50
2019-01-14T01:29:04.599Z,4.20
2019-01-14T01:31:32.087Z,5.37
2019-01-14T01:33:59.674Z,7.20
2019-01-14T01:36:31.812Z,4.30
2019-01-14T01:38:56.342Z,3.17
2019-01-14T01:41:23.759Z,2.37
2019-01-14T01:43:51.441Z,1.03
2019-01-14T01:46:19.246Z,10.10
2019-01-14T01:48:47.049Z,6.10
2019-01-14T01:51:14.582Z,1.47
2019-01-14T01:53:42.118Z,3.13
2019-01-14T01:56:09.618Z,9.53
2019-01-14T01:58:37.460Z,3.07
2019-01-14T02:01:05.196Z,3.93
2019-01-14T02:03:32.874Z,4.73
2019-01-14T02:06:00.626Z,3.50
2019-01-14T02:08:28.182Z,3.00
2019-01-14T02:10:56.169Z,3.00
2019-01-14T02:13:24.026Z,2.13
2019-01-14T02:15:51.521Z,7.67
2019-01-14T02:18:19.250Z,1.37
2019-01-14T02:20:46.635Z,3.53
2019-01-14T02:23:14.622Z,6.33
2019-01-14T02:25:42.010Z,4.63
2019-01-14T02:28:09.443Z,3.67
2019-01-14T02:30:37.000Z,5.70
2019-01-14T02:33:04.890Z,6.30
2019-01-14T02:35:32.780Z,6.57
2019-01-14T02:38:00.442Z,4.17
2019-01-14T02:40:28.600Z,10.47
2019-01-14T02:42:56.021Z,6.00
2019-01-14T02:45:23.511Z,2.30
2019-01-14T02:47:51.272Z,6.90
2019-01-14T02:50:18.898Z,3.40
2019-01-14T02:52:46.630Z,5.13
2019-01-14T02:55:14.063Z,6.97
2019-01-14T02:57:41.578Z,5.53
2019-01-14T03:00:13.523Z,3.03
2019-01-14T03:02:41.013Z,5.80
2019-01-14T03:05:08.623Z,3.40
2019-01-14T03:07:36.013Z,11.17
2019-01-14T03:10:05.348Z,5.40
2019-01-14T03:12:33.427Z,9.67
2019-01-14T03:15:00.825Z,6.80
2019-01-14T03:17:28.300Z,5.10
2019-01-14T03:19:55.817Z,9.57
2019-01-14T03:22:23.288Z,5.93
2019-01-14T03:24:50.766Z,7.97
2019-01-14T03:27:18.216Z,5.60
2019-01-14T03:29:45.613Z,4.97
2019-01-14T03:32:13.298Z,7.30
2019-01-14T03:34:41.151Z,7.33
2019-01-14T03:37:08.826Z,4.73
2019-01-14T03:39:36.286Z,5.53
2019-01-14T03:42:04.161Z,5.93
2019-01-14T03:44:31.609Z,4.20
2019-01-14T03:46:59.061Z,9.53
2019-01-14T03:49:26.428Z,9.40
2019-01-14T03:51:53.798Z,6.43
2019-01-14T03:54:21.513Z,2.93
2019-01-14T03:56:48.855Z,6.17
2019-01-14T03:59:16.853Z,6.23
2019-01-14T04:01:44.350Z,7.27
2019-01-14T04:04:11.852Z,8.90
2019-01-14T04:06:39.286Z,7.03
2019-01-14T04:09:07.058Z,4.93
2019-01-14T04:11:34.512Z,6.63
2019-01-14T04:14:01.917Z,6.67
2019-01-14T04:16:29.425Z,5.23
2019-01-14T04:18:56.793Z,8.10
2019-01-14T04:21:24.196Z,6.80
2019-01-14T04:23:51.698Z,8.03
2019-01-14T04:26:19.196Z,6.07
2019-01-14T04:28:46.675Z,8.63
2019-01-14T04:31:15.888Z,7.13
2019-01-14T04:33:43.520Z,13.70
2019-01-14T04:36:11.092Z,12.90
2019-01-14T04:38:39.342Z,12.03
2019-01-14T04:41:06.825Z,10.47
2019-01-14T04:43:34.534Z,10.00
2019-01-14T04:46:02.078Z,9.70
2019-01-14T04:48:29.949Z,10.90
2019-01-14T04:50:57.465Z,11.83
2019-01-14T04:53:24.856Z,13.37
2019-01-14T04:55:52.648Z,11.37
2019-01-14T04:58:20.061Z,6.63
2019-01-14T05:00:47.556Z,8.63
2019-01-14T05:03:15.266Z,10.47
2019-01-14T05:05:42.800Z,14.47
2019-01-14T05:08:10.884Z,9.60
2019-01-14T05:10:38.316Z,13.80
2019-01-14T05:13:05.837Z,10.77
2019-01-14T05:15:33.672Z,12.77
2019-01-14T05:18:01.042Z,12.77
2019-01-14T05:20:28.568Z,13.77
2019-01-14T05:23:03.287Z,14.50
2019-01-14T05:25:31.139Z,8.70
2019-01-14T05:27:58.820Z,8.20
2019-01-14T05:30:26.234Z,7.20
2019-01-14T05:32:53.966Z,9.30
2019-01-14T05:35:21.457Z,7.80
2019-01-14T05:37:49.050Z,14.20
2019-01-14T05:40:18.622Z,12.50
2019-01-14T05:42:46.556Z,11.07
2019-01-14T05:45:14.382Z,11.43
2019-01-14T05:47:41.991Z,15.20
2019-01-14T05:50:10.610Z,11.03
2019-01-14T05:52:38.135Z,12.20
2019-01-14T05:55:06.248Z,12.80
2019-01-14T05:57:33.636Z,11.10
2019-01-14T06:00:01.094Z,11.93
2019-01-14T06:02:28.621Z,16.40
2019-01-14T06:04:56.116Z,12.57
2019-01-14T06:07:23.747Z,16.47
2019-01-14T06:09:53.677Z,15.47
2019-01-14T06:12:21.094Z,14.70
2019-01-14T06:14:48.594Z,15.90
2019-01-14T06:17:16.084Z,10.77
2019-01-14T06:19:43.820Z,15.63
2019-01-14T06:22:11.244Z,20.00
2019-01-14T06:24:38.775Z,13.47
2019-01-14T06:27:06.365Z,17.63
2019-01-14T06:29:33.733Z,16.03
2019-01-14T06:32:01.756Z,10.47
2019-01-14T06:34:29.679Z,14.77
2019-01-14T06:36:57.102Z,15.60
2019-01-14T06:39:24.938Z,12.13
2019-01-14T06:41:52.469Z,13.17
2019-01-14T06:44:19.840Z,16.50
2019-01-14T06:46:47.328Z,12.40
2019-01-14T06:49:15.016Z,15.80
2019-01-14T06:51:42.473Z,15.93
2019-01-14T06:54:09.938Z,13.07
2019-01-14T06:56:37.457Z,16.93
2019-01-14T06:59:04.975Z,16.37
2019-01-14T07:01:32.365Z,16.43
2019-01-14T07:04:00.266Z,13.67
2019-01-14T07:06:27.808Z,13.80
2019-01-14T07:08:55.345Z,15.03
2019-01-14T07:11:23.058Z,14.77
2019-01-14T07:13:50.585Z,15.17
2019-01-14T07:16:18.097Z,12.73
2019-01-14T07:18:45.568Z,15.47
2019-01-14T07:21:12.990Z,12.70
2019-01-14T07:23:40.395Z,15.80
2019-01-14T07:26:07.877Z,14.30
2019-01-14T07:28:35.705Z,18.77
2019-01-14T07:31:03.320Z,19.60
2019-01-14T07:33:30.975Z,20.17
2019-01-14T07:35:59.331Z,16.17
2019-01-14T07:38:26.932Z,20.60
2019-01-14T07:40:54.405Z,21.00
2019-01-14T07:43:21.889Z,15.67
2019-01-14T07:45:52.147Z,14.30
2019-01-14T07:48:19.641Z,21.93
2019-01-14T07:50:47.220Z,14.97
2019-01-14T07:53:14.637Z,13.50
2019-01-14T07:55:42.000Z,12.33
2019-01-14T07:58:09.543Z,15.03
2019-01-14T08:00:36.986Z,18.53
2019-01-14T08:03:04.706Z,14.57
2019-01-14T08:05:32.201Z,13.20
2019-01-14T08:08:00.040Z,13.27
2019-01-14T08:10:27.498Z,16.00
2019-01-14T08:12:54.899Z,17.17
2019-01-14T08:15:22.361Z,15.20
2019-01-14T08:17:49.943Z,10.40
2019-01-14T08:20:17.573Z,14.83
2019-01-14T08:22:45.029Z,14.90
2019-01-14T08:25:13.472Z,11.37
2019-01-14T08:27:41.143Z,20.20
2019-01-14T08:30:20.732Z,10.23
2019-01-14T08:32:48.833Z,11.43
2019-01-14T08:35:16.844Z,11.50
2019-01-14T08:37:44.314Z,11.70
2019-01-14T08:40:12.760Z,13.00
2019-01-14T08:42:40.332Z,11.60
2019-01-14T08:45:08.949Z,11.60
2019-01-14T08:47:36.396Z,12.07
2019-01-14T08:50:05.729Z,15.23
2019-01-14T08:52:33.189Z,17.37
2019-01-14T08:55:00.619Z,17.53
2019-01-14T08:57:28.026Z,13.37
2019-01-14T08:59:55.433Z,9.70
2019-01-14T09:02:23.108Z,8.53
2019-01-14T09:04:50.643Z,10.77
2019-01-14T09:07:18.151Z,16.17
2019-01-14T09:09:45.667Z,11.53
2019-01-14T09:12:13.417Z,14.83
2019-01-14T09:14:40.805Z,9.97
2019-01-14T09:17:09.069Z,8.97
2019-01-14T09:19:36.535Z,15.33
2019-01-14T09:22:04.057Z,14.43
2019-01-14T09:24:31.641Z,13.27
2019-01-14T09:26:59.133Z,14.63
2019-01-14T09:29:26.848Z,11.83
2019-01-14T09:31:55.114Z,17.83
2019-01-14T09:34:22.935Z,14.37
2019-01-14T09:36:50.727Z,10.03
2019-01-14T09:39:18.232Z,9.97
2019-01-14T09:41:45.962Z,15.57
2019-01-14T09:44:13.384Z,14.83
2019-01-14T09:46:40.883Z,12.27
2019-01-14T09:49:08.340Z,8.10
2019-01-14T09:51:35.891Z,10.53
2019-01-14T09:54:04.865Z,8.70
2019-01-14T09:56:32.395Z,12.47
2019-01-14T09:58:59.879Z,13.70
2019-01-14T10:01:27.365Z,12.10
2019-01-14T10:03:54.949Z,11.10
2019-01-14T10:06:22.385Z,10.60
2019-01-14T10:08:50.272Z,11.03
2019-01-14T10:11:18.235Z,13.87
2019-01-14T10:13:45.716Z,9.80
2019-01-14T10:16:13.242Z,14.03
2019-01-14T10:18:40.861Z,13.10
2019-01-14T10:21:08.369Z,17.63
2019-01-14T10:23:35.854Z,12.87
2019-01-14T10:26:03.837Z,8.63
2019-01-14T10:28:31.249Z,8.17
2019-01-14T10:30:58.780Z,7.87
2019-01-14T10:33:26.295Z,7.50
2019-01-14T10:35:54.015Z,12.37
2019-01-14T10:38:21.466Z,7.70
2019-01-14T10:40:48.840Z,8.97
2019-01-14T10:43:16.281Z,12.37
2019-01-14T10:45:43.738Z,9.33
2019-01-14T10:48:11.294Z,12.63
2019-01-14T10:50:38.696Z,6.03
2019-01-14T10:53:06.181Z,11.67
2019-01-14T10:55:33.688Z,7.13
2019-01-14T10:58:01.169Z,7.03
2019-01-14T11:00:28.851Z,7.33
2019-01-14T11:02:56.585Z,9.80
2019-01-14T11:05:28.554Z,9.93
2019-01-14T11:07:56.065Z,13.53
2019-01-14T11:10:23.580Z,8.93
2019-01-14T11:12:51.510Z,9.90
2019-01-14T11:15:19.499Z,10.53
2019-01-14T11:17:47.051Z,11.87
2019-01-14T11:20:17.228Z,9.33
2019-01-14T11:22:44.830Z,6.17
2019-01-14T11:25:12.275Z,7.03
2019-01-14T11:27:39.803Z,8.23
2019-01-14T11:30:09.977Z,8.20
2019-01-14T11:32:37.511Z,9.53
2019-01-14T11:35:05.687Z,13.63
2019-01-14T11:37:33.217Z,7.33
2019-01-14T11:40:00.717Z,12.67
2019-01-14T11:42:28.743Z,7.67
2019-01-14T11:44:56.973Z,9.93
2019-01-14T11:47:24.489Z,8.60
2019-01-14T11:49:52.501Z,8.70
2019-01-14T11:52:19.973Z,6.23
2019-01-14T11:54:48.058Z,9.03
2019-01-14T11:57:15.557Z,7.87
2019-01-14T11:59:43.465Z,10.50
2019-01-14T12:02:10.821Z,7.70
2019-01-14T12:04:38.214Z,6.97
2019-01-14T12:07:05.724Z,9.53
2019-01-14T12:09:33.287Z,5.67
2019-01-14T12:12:01.033Z,5.50
2019-01-14T12:14:28.923Z,5.73
2019-01-14T12:16:56.300Z,5.20
2019-01-14T12:19:23.734Z,5.80
2019-01-14T12:21:51.376Z,5.47
2019-01-14T12:24:18.930Z,5.20
2019-01-14T12:26:46.404Z,4.17
2019-01-14T12:29:13.973Z,4.03
2019-01-14T12:31:41.484Z,4.67
2019-01-14T12:34:09.497Z,3.63
2019-01-14T12:36:36.916Z,2.47
2019-01-14T12:39:07.710Z,3.93
2019-01-14T12:41:36.356Z,2.63
2019-01-14T12:44:04.612Z,2.83
2019-01-14T12:46:33.199Z,4.60
2019-01-14T12:49:00.689Z,4.60
2019-01-14T12:51:28.169Z,6.33
2019-01-14T12:53:56.006Z,4.70
2019-01-14T12:56:23.514Z,3.73
2019-01-14T12:58:51.339Z,5.90
2019-01-14T13:01:18.801Z,6.10
2019-01-14T13:03:46.492Z,4.00
2019-01-14T13:06:14.128Z,5.73
2019-01-14T13:08:43.689Z,4.93
2019-01-14T13:11:11.189Z,5.63
2019-01-14T13:13:38.744Z,5.43
2019-01-14T13:16:06.357Z,6.43
2019-01-14T13:18:34.242Z,6.00
2019-01-14T13:21:02.090Z,6.20
2019-01-14T13:23:32.289Z,3.63
2019-01-14T13:25:59.171Z,6.33
2019-01-14T13:28:28.077Z,6.73
2019-01-14T13:30:55.842Z,5.27
2019-01-14T13:33:24.122Z,6.90
2019-01-14T13:35:51.747Z,6.80
2019-01-14T13:38:19.403Z,9.83
2019-01-14T13:40:47.004Z,5.03
2019-01-14T13:43:15.008Z,5.90
2019-01-14T13:45:42.578Z,6.60
2019-01-14T13:48:10.109Z,8.33
2019-01-14T13:50:38.105Z,5.00
2019-01-14T13:53:05.568Z,4.80
2019-01-14T13:55:33.131Z,5.40
2019-01-14T13:58:00.731Z,5.60
2019-01-14T14:00:28.411Z,9.27
2019-01-14T14:02:56.507Z,6.20
2019-01-14T14:05:24.376Z,5.83
2019-01-14T14:07:51.855Z,5.70
2019-01-14T14:10:22.251Z,8.77
2019-01-14T14:12:49.653Z,4.17
2019-01-14T14:15:17.279Z,7.17
2019-01-14T14:17:44.724Z,8.10
2019-01-14T14:20:13.842Z,7.37
2019-01-14T14:22:47.360Z,6.90
2019-01-14T14:25:14.860Z,10.60
2019-01-14T14:27:42.957Z,7.40
2019-01-14T14:30:17.838Z,5.57
2019-01-14T14:32:46.074Z,3.70
2019-01-14T14:35:13.999Z,6.87
2019-01-14T14:37:42.299Z,7.93
2019-01-14T14:40:09.863Z,5.83
2019-01-14T14:42:40.276Z,7.57
2019-01-14T14:45:10.543Z,6.97
2019-01-14T14:47:38.362Z,6.03
2019-01-14T14:50:09.017Z,3.03
2019-01-14T14:52:36.775Z,8.63
2019-01-14T14:55:05.019Z,7.23
2019-01-14T14:57:32.566Z,4.10
2019-01-14T15:00:00.637Z,4.43
2019-01-14T15:02:28.457Z,5.83
2019-01-14T15:04:56.957Z,8.27
2019-01-14T15:07:24.429Z,6.23
2019-01-14T15:09:55.792Z,4.97
2019-01-14T15:12:21.460Z,7.47
2019-01-14T15:14:48.952Z,6.20
2019-01-14T15:17:16.468Z,6.40
2019-01-14T15:19:43.920Z,6.47
2019-01-14T15:22:11.903Z,8.30
2019-01-14T15:24:39.618Z,6.43
2019-01-14T15:27:07.067Z,4.87
2019-01-14T15:29:34.545Z,5.00
2019-01-14T15:32:02.017Z,4.37
2019-01-14T15:34:29.768Z,7.97
2019-01-14T15:36:57.244Z,8.03
2019-01-14T15:39:25.016Z,6.47
2019-01-14T15:41:52.726Z,4.90
2019-01-14T15:44:21.004Z,4.70
2019-01-14T15:46:49.441Z,6.50
2019-01-14T15:49:17.210Z,7.80
2019-01-14T15:52:00.650Z,7.50
2019-01-14T15:54:32.901Z,5.37
2019-01-14T15:57:01.003Z,10.40
2019-01-14T15:59:32.964Z,5.50
2019-01-14T16:02:01.035Z,5.27
2019-01-14T16:04:41.814Z,6.67
2019-01-14T16:07:09.938Z,4.43
2019-01-14T16:09:38.035Z,5.67
2019-01-14T16:12:05.803Z,7.87
2019-01-14T16:14:44.137Z,6.47
2019-01-14T16:17:15.341Z,7.27
2019-01-14T16:20:07.294Z,9.97
2019-01-14T16:23:00.843Z,10.50
2019-01-14T16:25:32.333Z,8.43
2019-01-14T16:28:09.296Z,11.47
2019-01-14T16:30:38.187Z,3.73
2019-01-14T16:33:06.067Z,2.97
2019-01-14T16:35:34.301Z,7.43
2019-01-14T16:38:02.705Z,2.63
2019-01-14T16:40:30.667Z,5.53
2019-01-14T16:42:58.419Z,5.00
2019-01-14T16:45:28.175Z,2.33
2019-01-14T16:47:55.954Z,3.80
2019-01-14T16:50:25.748Z,4.23
2019-01-14T16:53:02.195Z,9.43
2019-01-14T16:55:45.500Z,4.60
2019-01-14T16:58:14.479Z,4.73
2019-01-14T17:00:42.535Z,3.67
2019-01-14T17:03:10.761Z,4.97
2019-01-14T17:05:39.723Z,5.70
2019-01-14T17:08:11.140Z,3.70
2019-01-14T17:10:39.203Z,6.43
2019-01-14T17:13:07.431Z,5.83
2019-01-14T17:15:35.666Z,3.20
2019-01-14T17:18:03.766Z,7.50
2019-01-14T17:20:32.704Z,3.87
2019-01-14T17:23:01.619Z,4.47
2019-01-14T17:25:30.793Z,4.83
2019-01-14T17:28:03.444Z,2.50
2019-01-14T17:30:31.570Z,2.27
2019-01-14T17:33:00.748Z,5.07
2019-01-14T17:35:38.777Z,5.57
2019-01-14T17:38:08.679Z,8.77
2019-01-14T17:40:39.754Z,4.00
2019-01-14T17:43:07.748Z,3.93
2019-01-14T17:45:35.496Z,2.50
2019-01-14T17:48:03.846Z,3.20
2019-01-14T17:50:31.452Z,2.63
2019-01-14T17:53:13.452Z,2.77
2019-01-14T17:55:41.458Z,2.87
2019-01-14T18:05:59.634Z,5.27
2019-01-14T18:08:44.420Z,4.63
2019-01-14T18:12:04.139Z,3.73
2019-01-14T18:18:37.522Z,4.67
2019-01-14T18:21:13.982Z,5.37
2019-01-14T18:24:09.896Z,5.10
2019-01-14T18:26:41.869Z,4.63
2019-01-14T18:29:12.188Z,3.97
2019-01-14T18:31:40.281Z,6.07
2019-01-14T18:34:09.101Z,6.90
2019-01-14T18:36:36.750Z,6.27
2019-01-14T18:39:08.269Z,12.07
2019-01-14T18:41:40.835Z,4.93
2019-01-14T18:44:09.405Z,6.23
2019-01-14T18:46:38.987Z,6.20
2019-01-14T18:49:09.812Z,5.87
2019-01-14T18:51:38.040Z,5.07
2019-01-14T18:54:08.556Z,5.70
2019-01-14T18:56:39.651Z,7.60
2019-01-14T18:59:08.447Z,4.50
2019-01-14T19:01:41.333Z,9.60
2019-01-14T19:04:11.035Z,6.17
2019-01-14T19:06:42.312Z,5.90
2019-01-14T19:09:11.493Z,5.27
2019-01-14T19:11:40.612Z,6.67
2019-01-14T19:14:10.560Z,4.33
2019-01-14T19:16:38.563Z,6.50
2019-01-14T19:19:07.344Z,7.00
2019-01-14T19:21:36.170Z,8.50
2019-01-14T19:24:07.115Z,5.63
2019-01-14T19:26:39.759Z,7.53
2019-01-14T19:29:13.928Z,12.27
2019-01-14T19:31:43.122Z,8.70
2019-01-14T19:34:10.620Z,4.90
2019-01-14T19:36:39.950Z,8.93
2019-01-14T19:39:08.905Z,10.70
2019-01-14T19:41:36.626Z,6.57
2019-01-14T19:44:07.065Z,4.57
2019-01-14T19:46:48.507Z,8.93
2019-01-14T19:50:05.605Z,7.10
2019-01-14T19:53:07.518Z,13.70
2019-01-14T19:55:47.625Z,7.23
2019-01-14T19:58:37.445Z,11.43
2019-01-14T20:01:40.249Z,4.80
2019-01-14T20:05:03.854Z,7.33
2019-01-14T20:10:45.426Z,5.40
2019-01-14T20:17:59.860Z,3.63
2019-01-14T20:20:27.919Z,8.00
2019-01-14T20:22:55.981Z,4.70
2019-01-14T20:25:34.540Z,10.07
2019-01-14T20:28:12.288Z,5.03
2019-01-14T20:30:46.537Z,6.83
2019-01-14T20:33:40.625Z,9.27
2019-01-14T20:36:27.914Z,12.47
2019-01-14T20:39:17.159Z,7.67
2019-01-14T20:41:45.353Z,6.43
2019-01-14T20:44:13.346Z,6.67
2019-01-14T20:46:41.489Z,6.20
2019-01-14T20:49:09.201Z,6.30
2019-01-14T20:51:36.869Z,6.60
2019-01-14T20:54:04.545Z,10.03
2019-01-14T20:56:33.126Z,6.03
2019-01-14T20:59:00.766Z,4.97
2019-01-14T21:01:29.219Z,7.13
2019-01-14T21:03:57.226Z,14.53
2019-01-14T21:06:26.449Z,6.77
2019-01-14T21:08:54.150Z,8.83
2019-01-14T21:11:24.104Z,8.63
2019-01-14T21:13:51.378Z,16.43
2019-01-14T21:16:18.926Z,8.83
2019-01-14T21:18:46.619Z,8.70
2019-01-14T21:21:14.449Z,6.67
2019-01-14T21:23:42.018Z,6.57
2019-01-14T21:26:09.532Z,9.77
2019-01-14T21:29:01.086Z,6.60
2019-01-14T21:31:31.073Z,7.50
2019-01-14T21:34:03.105Z,6.57
2019-01-14T21:36:30.701Z,11.90
2019-01-14T21:38:59.137Z,7.63
2019-01-14T21:41:31.268Z,7.37
2019-01-14T21:43:56.264Z,15.40
2019-01-14T21:46:25.029Z,11.03
2019-01-14T21:48:53.459Z,4.93
2019-01-14T21:51:21.140Z,8.13
2019-01-14T21:53:49.369Z,12.63
2019-01-14T21:56:18.718Z,10.87
2019-01-14T21:58:46.672Z,5.93
2019-01-14T22:01:17.363Z,6.60
2019-01-14T22:03:45.325Z,6.37
2019-01-14T22:06:13.366Z,6.43
2019-01-14T22:08:41.155Z,11.03
2019-01-14T22:11:10.104Z,7.70
2019-01-14T22:13:38.026Z,8.33
2019-01-14T22:16:05.702Z,22.77
2019-01-14T22:18:33.143Z,7.97
2019-01-14T22:21:01.035Z,21.00
2019-01-14T22:23:28.831Z,7.30
2019-01-14T22:25:57.075Z,9.77
2019-01-14T22:28:47.070Z,27.27
2019-01-14T22:31:14.908Z,19.80
2019-01-14T22:33:43.829Z,6.17
2019-01-14T22:36:11.257Z,4.50
2019-01-14T22:38:38.634Z,7.10
2019-01-14T22:41:06.246Z,17.37
2019-01-14T22:43:33.909Z,7.53
2019-01-14T22:46:04.263Z,6.00
2019-01-14T22:48:31.773Z,13.67
2019-01-14T22:50:59.423Z,28.17
2019-01-14T22:53:26.823Z,16.53
2019-01-14T22:55:54.767Z,10.00
2019-01-14T22:58:22.812Z,8.07
2019-01-14T23:01:14.591Z,7.83
2019-01-14T23:03:44.446Z,7.87
2019-01-14T23:06:12.049Z,8.90
2019-01-14T23:08:39.994Z,6.60
2019-01-14T23:11:10.139Z,8.43
2019-01-14T23:13:38.143Z,11.07
2019-01-14T23:16:05.685Z,15.73
2019-01-14T23:18:36.176Z,15.63
2019-01-14T23:21:04.724Z,18.30
2019-01-14T23:23:32.816Z,13.17
2019-01-14T23:26:00.333Z,8.30
2019-01-14T23:28:27.850Z,17.37
2019-01-14T23:30:55.342Z,12.83
2019-01-14T23:33:22.759Z,21.30
2019-01-14T23:35:50.266Z,20.00
2019-01-14T23:38:18.130Z,9.73
2019-01-14T23:40:45.497Z,7.20
2019-01-14T23:43:12.870Z,13.07
2019-01-14T23:45:40.480Z,7.37
2019-01-14T23:48:08.324Z,7.67
2019-01-14T23:50:35.731Z,8.83
2019-01-14T23:53:03.576Z,10.43
2019-01-14T23:55:31.451Z,8.37
2019-01-14T23:57:59.491Z,7.97
